Trubcevsk, Russia
Current Conditions -  °F | °C
As of 2:00 AM on Thursday 23 Oct 2014 (Local Time) from UMGG Reporting Station
Clear Clear  
Wind Chill: 18°   Ceiling: Unl
Heat Index: 28°   Visibility: 6mi
Dew Point: 23°   Wind: 13mph
Humidity: 80%   Direction: 70°ENE
Pressure: 30.09"   Gusts: 20mph
Location:  52.58°N, 33.79°E
Report Text: UMGG 222300Z 07006G09MPS CAVOK M02/M05 Q1019 R28/290050 NOSIG
Loading
Personal Weather Stations






























Interactive Weather Map
Tropical Storm Tracking
New forecast layout! Learn more

10-Day Weather Forecast

Advertisements
Track Severe Weather on mobile